Widner, Indiana
Current Conditions -  °F | °C
As of 9:53 PM on Friday 19 Dec 2014 (Local Time) from KLWV Reporting Station
Few Clouds Few Clouds  
Wind Chill: 31°   Ceiling: Unl
Heat Index: 31°   Visibility: 8mi
Dew Point: 26°   Wind: 3mph
Humidity: 82%   Direction: 60°ENE
Pressure: 30.28"   Gusts: NA
Location:  38.8517°N, 87.414°W
Report Text: KLWV 200353Z AUTO 06003KT 8SM FEW120 M01/M03 A3028 RMK AO2 SLP258 T10061033
Loading
Personal Weather Stations






























Interactive Weather Map New forecast layout! Learn more

10-Day Weather Forecast

Advertisements
Track Severe Weather on mobile